Kezdőlap
METAR-TAF:

METAR-TAF

Repülőterek :

Bad Vöslau, Ausztria

földrajzi szélesség: 47-57-52N, földrajzi hosszúság: 016-15-34E, magasság: 233 m

Jelenlegi meteorológiai megfigyelések

A jelentés 12 órával és 55 perccel ezelõtt készült, 15:00 UTC
Különbözõ irányokból fújó szél 2 kt
Hőmérséklet 12°C
Páratartalom 54%
Légköri nyomás

METAR: LOAV 141500Z VRB02KT 30KM FEW040CU BKN300CI 12/03

Idő: 04:55 (03:55 UTC)

Előrejelzés

A jelentés 16 órával és 30 perccel ezelõtt készült, 11:25 UTC
Az előrejelzés 14-én 12 óra UTC és 14-én 21 óra UTC között érvényes
Észak-északnyugati szél 12 kt
Látótávolság 10 km, vagy több
Szórványos felhőzet 5000 lábon

TAF: LOAV 141125Z 1412/1421 33012KT 9999 SCT050

Meteorológiai megfigyelések és előrejelzések több, mint 4000 repülőtéren (METAR és TAF jelentéseket).

A térképen piros és sárga pontok jelzik az elérhető meteorológiai állomásokat.

Mozgassa az egeret a pont fölött, hogy megjelenjen az állomás neve.

Azután kattintson az időjárási megfigyelések és előrejelzések megtekintéséhez.

A térkép megváltoztatása: kattintson a fekete keresztel jelölt zöld gombra ráközelítéshez, a vonallal jelölt zöld gombra távolításhoz, vagy a zöld nyilakra a szomszédos térképek eléréséhez.


METAR-TAF: